Time;durP1;ratioP1;P1;durP2;ratioP2;P2;SDS_P1;SDS_P2;PMS_P1;PMS_P2;Temp;Humidity;BMP_temperature;BMP_pressure;BME280_temperature;BME280_humidity;BME280_pressure;Samples;Min_cycle;Max_cycle;Signal;HPM_P1;HPM_P2
2024/01/30 00:01:17;;;;;;;12.88;6.13;;;2.80;58.10;;;;;;4851685;29;114595;-80
2024/01/30 00:03:45;;;;;;;10.15;5.03;;;2.80;58.10;;;;;;4855750;29;114320;-80
2024/01/30 00:06:14;;;;;;;12.98;6.15;;;2.90;58.00;;;;;;4854106;29;114501;-80
2024/01/30 00:08:41;;;;;;;12.45;5.95;;;2.90;58.20;;;;;;4850784;28;115191;-82
2024/01/30 00:11:12;;;;;;;13.30;6.38;;;2.90;58.20;;;;;;4849747;29;116134;-82
2024/01/30 00:13:39;;;;;;;10.90;5.90;;;2.90;58.30;;;;;;4850332;29;114363;-82
2024/01/30 00:16:08;;;;;;;10.13;5.80;;;2.90;58.20;;;;;;4850393;29;114770;-80
2024/01/30 00:18:36;;;;;;;10.75;5.50;;;2.90;58.10;;;;;;4848602;28;115286;-81
2024/01/30 00:21:04;;;;;;;10.38;5.38;;;3.00;58.10;;;;;;4847999;29;114706;-81
2024/01/30 00:23:31;;;;;;;9.98;5.32;;;2.90;58.10;;;;;;4848866;29;114861;-81
2024/01/30 00:25:58;;;;;;;9.90;5.30;;;2.90;57.70;;;;;;4850675;29;114495;-81
2024/01/30 00:28:25;;;;;;;11.55;5.50;;;2.90;57.70;;;;;;4848087;29;115698;-81
2024/01/30 00:30:53;;;;;;;10.60;5.30;;;2.90;57.60;;;;;;4849505;29;115320;-81
2024/01/30 00:33:20;;;;;;;10.15;5.78;;;2.90;57.60;;;;;;4849008;29;114704;-81
2024/01/30 00:35:47;;;;;;;9.02;5.13;;;2.90;57.40;;;;;;4818479;29;114464;-81
2024/01/30 00:38:17;;;;;;;10.20;5.35;;;2.90;57.40;;;;;;4849115;28;116617;-81
2024/01/30 00:40:46;;;;;;;9.63;5.57;;;2.90;57.50;;;;;;4831873;29;116813;-81
2024/01/30 00:43:15;;;;;;;11.80;5.40;;;2.90;57.20;;;;;;4850084;29;114498;-81
2024/01/30 00:45:46;;;;;;;9.32;5.03;;;2.80;57.40;;;;;;4850419;29;114539;-81
2024/01/30 00:48:13;;;;;;;8.13;4.93;;;2.90;57.30;;;;;;4832082;29;116484;-81
2024/01/30 00:50:41;;;;;;;9.77;5.10;;;2.90;57.40;;;;;;4836115;29;115765;-80
2024/01/30 00:53:08;;;;;;;8.98;4.85;;;2.90;57.40;;;;;;4803075;29;114533;-80
2024/01/30 00:55:38;;;;;;;9.15;5.38;;;2.90;57.50;;;;;;4865062;28;115028;-80
2024/01/30 00:58:05;;;;;;;10.00;4.88;;;2.90;57.40;;;;;;4848875;28;115047;-80
2024/01/30 01:00:33;;;;;;;11.00;5.30;;;2.90;57.30;;;;;;4848931;29;114872;-80
2024/01/30 01:03:00;;;;;;;7.93;4.93;;;2.90;57.40;;;;;;4863921;28;114794;-80
2024/01/30 01:05:27;;;;;;;8.27;5.00;;;2.90;57.40;;;;;;4863761;28;114958;-80
2024/01/30 01:07:54;;;;;;;9.38;5.00;;;3.00;57.30;;;;;;4862824;28;115255;-81
2024/01/30 01:10:22;;;;;;;8.85;4.80;;;3.00;57.20;;;;;;4847476;29;116416;-81
2024/01/30 01:12:49;;;;;;;9.10;5.22;;;2.90;57.20;;;;;;4863360;28;114873;-80
2024/01/30 01:15:18;;;;;;;8.73;4.55;;;3.00;57.10;;;;;;4849679;29;114404;-80
2024/01/30 01:17:45;;;;;;;10.32;5.20;;;3.00;57.10;;;;;;4847234;29;115196;-80
2024/01/30 01:20:13;;;;;;;12.25;4.95;;;3.00;56.80;;;;;;4848204;29;115287;-80
2024/01/30 01:22:40;;;;;;;9.15;5.20;;;2.90;56.90;;;;;;4848679;29;114671;-80
2024/01/30 01:25:08;;;;;;;9.05;4.55;;;2.90;56.90;;;;;;4848934;28;114354;-82
2024/01/30 01:27:40;;;;;;;8.25;4.68;;;3.00;56.70;;;;;;4831642;29;115483;-79
2024/01/30 01:30:11;;;;;;;9.85;4.82;;;3.00;56.70;;;;;;4849390;29;114847;-79
2024/01/30 01:32:44;;;;;;;8.48;4.88;;;2.90;56.40;;;;;;4852166;29;114740;-80
2024/01/30 01:35:12;;;;;;;10.15;4.47;;;2.90;56.50;;;;;;4850865;29;114585;-79
2024/01/30 01:37:39;;;;;;;10.85;4.82;;;2.90;56.50;;;;;;4851093;29;115799;-80
2024/01/30 01:40:07;;;;;;;9.73;4.65;;;2.90;56.60;;;;;;4866088;28;117871;-80
2024/01/30 01:42:35;;;;;;;8.60;3.95;;;2.90;56.70;;;;;;4866551;28;114752;-80
2024/01/30 01:45:03;;;;;;;8.63;4.80;;;2.90;56.70;;;;;;4852770;29;114853;-80
2024/01/30 01:47:30;;;;;;;9.20;4.90;;;2.90;56.60;;;;;;4850685;29;115928;-79
2024/01/30 01:49:57;;;;;;;9.70;5.03;;;2.80;56.70;;;;;;4834339;29;114587;-80
2024/01/30 01:52:25;;;;;;;9.27;4.72;;;2.90;56.70;;;;;;4851926;28;114687;-80
2024/01/30 01:54:52;;;;;;;9.10;5.07;;;2.90;56.80;;;;;;4835424;29;114598;-80
2024/01/30 01:57:20;;;;;;;9.82;4.60;;;2.90;56.80;;;;;;4850883;28;115665;-79
2024/01/30 01:59:47;;;;;;;13.32;5.35;;;2.90;56.80;;;;;;4834365;29;114754;-80
2024/01/30 02:02:15;;;;;;;10.38;4.88;;;2.80;56.50;;;;;;4835085;28;114457;-80
2024/01/30 02:04:43;;;;;;;9.68;4.70;;;2.70;56.70;;;;;;4851785;28;114594;-79
2024/01/30 02:07:10;;;;;;;8.77;4.85;;;2.70;56.70;;;;;;4849493;29;115259;-79
2024/01/30 02:09:38;;;;;;;8.13;4.72;;;2.70;56.80;;;;;;4865151;28;114868;-80
2024/01/30 02:12:06;;;;;;;8.70;4.93;;;2.70;56.70;;;;;;4850859;28;114580;-80
2024/01/30 02:14:33;;;;;;;10.70;4.75;;;2.70;56.70;;;;;;4851456;28;114730;-79
2024/01/30 02:17:00;;;;;;;9.25;4.90;;;2.70;56.70;;;;;;4852413;28;117183;-80
2024/01/30 02:19:28;;;;;;;8.18;4.10;;;2.70;56.60;;;;;;4865101;28;115927;-80
2024/01/30 02:21:55;;;;;;;7.32;4.80;;;2.70;56.70;;;;;;4850246;29;114607;-80
2024/01/30 02:24:23;;;;;;;9.52;4.50;;;2.70;56.60;;;;;;4851339;28;114548;-80
2024/01/30 02:26:50;;;;;;;8.13;4.65;;;2.70;56.80;;;;;;4864997;28;115731;-80
2024/01/30 02:29:17;;;;;;;7.78;4.68;;;2.70;56.60;;;;;;4849575;29;116652;-80
2024/01/30 02:31:45;;;;;;;8.63;5.20;;;2.70;56.60;;;;;;4849824;29;114839;-80
2024/01/30 02:34:14;;;;;;;8.02;4.70;;;2.70;56.70;;;;;;4866048;28;114752;-80
2024/01/30 02:36:44;;;;;;;10.07;5.00;;;2.80;56.60;;;;;;4864818;28;115196;-80
2024/01/30 02:39:12;;;;;;;7.68;4.43;;;2.70;56.60;;;;;;4850295;29;115208;-80
2024/01/30 02:41:39;;;;;;;8.48;4.68;;;2.80;56.70;;;;;;4865105;28;114609;-80
2024/01/30 02:44:06;;;;;;;9.50;4.70;;;2.80;56.30;;;;;;4850216;29;114867;-80
2024/01/30 02:46:33;;;;;;;8.77;4.78;;;2.80;56.50;;;;;;4884770;28;115116;-79
2024/01/30 02:49:01;;;;;;;9.63;4.43;;;2.80;56.50;;;;;;4887446;28;114908;-79
2024/01/30 02:51:29;;;;;;;10.80;4.72;;;2.80;56.50;;;;;;4888492;28;114475;-80
2024/01/30 02:54:01;;;;;;;7.60;4.53;;;2.80;56.40;;;;;;4889301;28;114807;-80
2024/01/30 02:56:28;;;;;;;7.75;4.38;;;2.80;56.50;;;;;;4888543;28;115253;-80
2024/01/30 02:58:56;;;;;;;9.55;5.07;;;2.80;56.40;;;;;;4886814;28;114750;-80
2024/01/30 03:01:24;;;;;;;6.88;3.80;;;2.80;56.50;;;;;;4872275;28;114520;-80
2024/01/30 03:03:52;;;;;;;9.13;4.15;;;2.80;56.30;;;;;;4872479;28;114586;-80
2024/01/30 03:06:20;;;;;;;8.75;4.65;;;2.70;56.20;;;;;;4855438;28;115188;-81
2024/01/30 03:08:47;;;;;;;8.32;4.35;;;2.80;56.20;;;;;;4888407;28;114931;-81
2024/01/30 03:11:15;;;;;;;9.32;5.05;;;2.80;56.10;;;;;;4887748;28;114850;-81
2024/01/30 03:13:43;;;;;;;11.32;5.10;;;2.80;56.20;;;;;;4887460;28;114582;-81
2024/01/30 03:16:12;;;;;;;8.45;4.53;;;2.70;56.10;;;;;;4887793;28;115093;-81
2024/01/30 03:18:39;;;;;;;8.70;4.45;;;2.80;56.10;;;;;;4886938;28;114928;-80
2024/01/30 03:21:07;;;;;;;8.40;4.80;;;2.80;56.10;;;;;;4887766;28;114843;-82
2024/01/30 03:23:34;;;;;;;9.20;5.15;;;2.80;56.00;;;;;;4905900;28;114504;-81
2024/01/30 03:26:03;;;;;;;8.85;4.55;;;2.70;56.10;;;;;;4888145;28;114442;-82
2024/01/30 03:28:33;;;;;;;7.85;4.82;;;2.80;56.20;;;;;;4886857;28;114598;-81
2024/01/30 03:31:01;;;;;;;9.65;5.18;;;2.80;56.30;;;;;;4887449;28;114547;-82
2024/01/30 03:33:31;;;;;;;8.35;4.25;;;2.80;56.30;;;;;;4871461;28;114772;-81
2024/01/30 03:36:04;;;;;;;7.85;4.28;;;2.80;56.20;;;;;;4887597;28;115562;-81
2024/01/30 03:38:32;;;;;;;11.57;4.88;;;2.80;56.10;;;;;;4886393;28;115261;-81
2024/01/30 03:41:00;;;;;;;9.63;4.95;;;2.80;55.90;;;;;;4888266;28;114590;-81
2024/01/30 03:43:30;;;;;;;8.65;4.80;;;2.70;55.90;;;;;;4856057;28;114690;-81
2024/01/30 03:45:57;;;;;;;9.13;5.07;;;2.70;56.00;;;;;;4885092;28;118788;-81
2024/01/30 03:48:25;;;;;;;8.73;4.80;;;2.70;55.90;;;;;;4870640;28;114784;-81
2024/01/30 03:50:52;;;;;;;11.13;5.47;;;2.70;55.90;;;;;;4887516;28;114692;-81
2024/01/30 03:53:20;;;;;;;9.75;5.30;;;2.70;55.90;;;;;;4870385;28;114770;-81
2024/01/30 03:56:05;;;;;;;10.38;5.15;;;2.70;56.00;;;;;;4886091;28;115206;-81
2024/01/30 03:58:32;;;;;;;8.10;5.28;;;2.70;56.00;;;;;;4885826;28;114668;-80
2024/01/30 04:00:59;;;;;;;10.57;5.40;;;2.70;56.00;;;;;;4870991;28;114729;-81
2024/01/30 04:03:27;;;;;;;7.55;4.55;;;2.70;55.90;;;;;;4886640;28;115074;-81
2024/01/30 04:05:54;;;;;;;10.20;4.75;;;2.60;56.00;;;;;;4886783;28;115133;-81
2024/01/30 04:08:22;;;;;;;10.48;5.20;;;2.60;56.00;;;;;;4886018;28;114783;-80
2024/01/30 04:10:49;;;;;;;10.13;5.18;;;2.60;56.00;;;;;;4886523;28;114515;-80
2024/01/30 04:13:16;;;;;;;8.55;4.93;;;2.60;56.00;;;;;;4887754;28;114660;-80
2024/01/30 04:15:44;;;;;;;9.00;4.95;;;2.60;56.00;;;;;;4885098;28;115290;-80
2024/01/30 04:18:12;;;;;;;11.60;5.53;;;2.60;56.10;;;;;;4885563;28;114658;-80
2024/01/30 04:20:39;;;;;;;8.18;5.43;;;2.60;56.20;;;;;;4887621;28;114605;-81
2024/01/30 04:23:06;;;;;;;10.35;5.57;;;2.60;56.10;;;;;;4870857;28;115039;-81
2024/01/30 04:25:34;;;;;;;8.23;4.78;;;2.60;56.10;;;;;;4886556;28;115121;-80
2024/01/30 04:28:01;;;;;;;8.38;4.82;;;2.50;56.30;;;;;;4886618;28;114683;-80
2024/01/30 04:30:28;;;;;;;9.40;5.10;;;2.60;56.20;;;;;;4886243;28;114623;-79
2024/01/30 04:32:55;;;;;;;10.27;6.15;;;2.60;56.00;;;;;;4887932;28;114451;-79
2024/01/30 04:35:24;;;;;;;11.93;5.40;;;2.60;56.00;;;;;;4885315;28;115083;-80
2024/01/30 04:37:53;;;;;;;12.38;4.93;;;2.60;55.60;;;;;;4886683;28;116309;-80
2024/01/30 04:40:21;;;;;;;10.50;5.97;;;2.60;55.60;;;;;;4885504;28;114600;-81
2024/01/30 04:42:48;;;;;;;8.68;5.10;;;2.60;55.70;;;;;;4886965;28;114626;-81
2024/01/30 04:45:16;;;;;;;11.68;5.32;;;2.50;55.70;;;;;;4884735;28;115724;-80
2024/01/30 04:47:43;;;;;;;10.25;5.25;;;2.60;55.70;;;;;;4885136;28;114709;-80
2024/01/30 04:50:10;;;;;;;11.25;6.20;;;2.60;55.70;;;;;;4869921;28;114538;-79
2024/01/30 04:52:38;;;;;;;11.85;5.38;;;2.60;55.80;;;;;;4870295;28;114873;-79
2024/01/30 04:55:06;;;;;;;9.43;4.45;;;2.60;55.60;;;;;;4885397;28;115162;-79
2024/01/30 04:57:33;;;;;;;9.35;4.80;;;2.60;55.60;;;;;;4886948;28;115180;-79
2024/01/30 05:00:00;;;;;;;10.65;5.60;;;2.70;55.50;;;;;;4870667;28;114321;-79
2024/01/30 05:02:28;;;;;;;9.18;5.45;;;2.60;55.50;;;;;;4897133;28;114526;-79
2024/01/30 05:04:58;;;;;;;10.50;5.15;;;2.60;55.30;;;;;;4888762;28;114517;-81
2024/01/30 05:07:26;;;;;;;12.07;5.40;;;2.60;55.40;;;;;;4889713;28;114749;-80
2024/01/30 05:09:54;;;;;;;8.77;5.18;;;2.60;55.40;;;;;;4873641;28;114400;-80
2024/01/30 05:12:26;;;;;;;10.68;5.90;;;2.60;55.30;;;;;;4874293;28;114737;-79
2024/01/30 05:14:53;;;;;;;10.00;5.45;;;2.60;55.10;;;;;;4890269;28;115231;-80
2024/01/30 05:17:20;;;;;;;8.95;4.53;;;2.60;55.10;;;;;;4889102;28;114643;-79
2024/01/30 05:19:48;;;;;;;10.35;5.00;;;2.60;55.20;;;;;;4890303;28;114547;-80
2024/01/30 05:22:17;;;;;;;11.00;6.07;;;2.60;55.00;;;;;;4890864;28;114397;-79
2024/01/30 05:24:45;;;;;;;12.32;5.47;;;2.50;54.80;;;;;;4888197;28;115669;-80
2024/01/30 05:27:14;;;;;;;13.35;6.15;;;2.50;55.00;;;;;;4888488;28;114659;-80
2024/01/30 05:29:44;;;;;;;11.68;5.40;;;2.50;55.00;;;;;;4889544;28;114705;-80
2024/01/30 05:32:11;;;;;;;9.90;5.88;;;2.50;55.00;;;;;;4873658;28;115024;-80
2024/01/30 05:34:38;;;;;;;9.50;5.35;;;2.50;54.90;;;;;;4889565;28;115430;-79
2024/01/30 05:37:06;;;;;;;10.93;5.43;;;2.50;55.10;;;;;;4888380;28;114647;-80
2024/01/30 05:39:33;;;;;;;12.02;6.18;;;2.40;55.10;;;;;;4890073;28;114891;-80
2024/01/30 05:42:00;;;;;;;9.43;5.68;;;2.40;54.90;;;;;;4888444;28;114405;-79
2024/01/30 05:44:28;;;;;;;11.65;5.50;;;2.40;55.00;;;;;;4872189;28;115319;-80
2024/01/30 05:46:55;;;;;;;12.60;6.10;;;2.40;55.10;;;;;;4889250;28;115727;-79
2024/01/30 05:49:22;;;;;;;10.40;5.80;;;2.40;55.10;;;;;;4888744;28;114750;-79
2024/01/30 05:51:50;;;;;;;11.18;6.00;;;2.40;55.30;;;;;;4889828;28;114380;-81
2024/01/30 05:54:17;;;;;;;13.10;6.53;;;2.50;55.20;;;;;;4887235;28;115492;-80
2024/01/30 05:56:44;;;;;;;10.85;5.88;;;2.50;55.10;;;;;;4887662;28;115155;-80
2024/01/30 05:59:11;;;;;;;11.65;5.60;;;2.50;55.10;;;;;;4888400;28;114709;-80
2024/01/30 06:01:45;;;;;;;9.98;5.25;;;2.40;54.60;;;;;;4889593;28;114514;-79
2024/01/30 06:04:13;;;;;;;9.60;5.07;;;2.30;54.70;;;;;;4856436;28;116336;-79
2024/01/30 06:06:41;;;;;;;11.20;6.28;;;2.40;54.80;;;;;;4871534;28;114815;-80
2024/01/30 06:09:09;;;;;;;10.55;5.45;;;2.30;54.80;;;;;;4872128;28;114634;-80
2024/01/30 06:11:36;;;;;;;10.10;5.28;;;2.30;54.90;;;;;;4888687;28;114587;-81
2024/01/30 06:14:03;;;;;;;11.30;5.97;;;2.40;55.00;;;;;;4871658;28;115829;-81
2024/01/30 06:16:31;;;;;;;13.02;6.80;;;2.40;55.10;;;;;;4865372;28;115004;-81
2024/01/30 06:18:59;;;;;;;11.02;6.18;;;2.40;55.20;;;;;;4844269;29;114860;-81
2024/01/30 06:21:26;;;;;;;10.10;5.18;;;2.40;55.10;;;;;;4861899;28;114727;-81
2024/01/30 06:23:53;;;;;;;10.13;5.28;;;2.40;55.30;;;;;;4860164;28;115038;-81
2024/01/30 06:26:21;;;;;;;11.10;5.72;;;2.40;55.00;;;;;;4850312;28;115207;-82
2024/01/30 06:28:48;;;;;;;12.15;5.97;;;2.40;55.20;;;;;;4861138;28;114554;-82
2024/01/30 06:31:15;;;;;;;10.60;6.78;;;2.40;55.10;;;;;;4859432;28;114456;-83
2024/01/30 06:33:49;;;;;;;11.75;6.13;;;2.40;55.20;;;;;;4869988;28;115339;-81
2024/01/30 06:36:16;;;;;;;11.82;5.82;;;2.40;55.30;;;;;;4870125;28;116312;-81
2024/01/30 06:38:43;;;;;;;12.48;6.28;;;2.50;55.20;;;;;;4874986;28;114852;-81
2024/01/30 06:41:11;;;;;;;11.40;6.45;;;2.50;55.10;;;;;;4871434;28;114657;-81
2024/01/30 06:43:38;;;;;;;11.73;6.03;;;2.50;55.20;;;;;;4875097;28;114824;-81
2024/01/30 06:46:06;;;;;;;12.07;6.22;;;2.50;55.20;;;;;;4859612;28;114627;-81
2024/01/30 06:48:33;;;;;;;12.05;6.38;;;2.50;55.10;;;;;;4862663;28;114462;-81
2024/01/30 06:51:01;;;;;;;8.63;5.45;;;2.50;54.70;;;;;;4860696;28;114643;-82
2024/01/30 06:53:28;;;;;;;9.75;5.88;;;2.50;55.00;;;;;;4864955;28;114563;-80
2024/01/30 06:55:55;;;;;;;11.73;6.50;;;2.50;55.10;;;;;;4857125;28;115806;-81
2024/01/30 06:58:23;;;;;;;8.93;5.70;;;2.50;55.10;;;;;;4826963;28;114409;-83
2024/01/30 07:00:51;;;;;;;12.70;5.78;;;2.60;55.10;;;;;;4842085;28;114906;-83
2024/01/30 07:03:18;;;;;;;11.80;5.82;;;2.60;55.20;;;;;;4855730;28;115044;-81
2024/01/30 07:05:47;;;;;;;11.45;6.13;;;2.70;54.90;;;;;;4857314;28;114730;-80
2024/01/30 07:08:18;;;;;;;9.00;4.97;;;2.80;54.90;;;;;;4860084;28;114491;-82
2024/01/30 07:10:45;;;;;;;11.73;6.68;;;2.70;54.30;;;;;;4858387;28;114526;-82
2024/01/30 07:13:16;;;;;;;11.93;6.55;;;2.70;54.30;;;;;;4857668;28;115576;-82
2024/01/30 07:15:43;;;;;;;14.70;6.28;;;2.80;54.30;;;;;;4857631;28;114789;-82
2024/01/30 07:18:13;;;;;;;10.25;5.32;;;2.90;54.00;;;;;;4842909;28;114923;-81
2024/01/30 07:20:45;;;;;;;13.40;6.38;;;3.00;54.30;;;;;;4858060;28;114904;-81
2024/01/30 07:23:15;;;;;;;11.48;6.63;;;3.10;54.00;;;;;;4843874;28;115653;-82
2024/01/30 07:25:49;;;;;;;10.68;6.55;;;3.20;54.20;;;;;;4857920;28;114837;-84
2024/01/30 07:28:18;;;;;;;9.77;5.93;;;3.30;54.10;;;;;;4858227;28;114523;-82
2024/01/30 07:30:50;;;;;;;13.75;6.15;;;3.40;53.20;;;;;;4859582;28;114420;-82
2024/01/30 07:33:18;;;;;;;10.00;6.15;;;3.50;53.20;;;;;;4858917;28;115061;-80
2024/01/30 07:35:46;;;;;;;12.48;6.65;;;3.60;52.80;;;;;;4841293;28;117386;-81
2024/01/30 07:38:16;;;;;;;11.32;6.88;;;3.60;53.20;;;;;;4856449;28;114634;-82
2024/01/30 07:40:44;;;;;;;14.75;6.95;;;3.70;53.00;;;;;;4858944;28;114528;-82
2024/01/30 07:43:12;;;;;;;10.18;6.10;;;3.90;53.00;;;;;;4858915;28;115045;-83
2024/01/30 07:45:39;;;;;;;11.90;5.97;;;4.00;53.10;;;;;;4874081;28;114917;-81
2024/01/30 07:48:07;;;;;;;13.55;6.78;;;4.10;52.90;;;;;;4872228;28;114670;-81
2024/01/30 07:50:34;;;;;;;10.27;6.00;;;4.20;52.70;;;;;;4874685;28;114473;-82
2024/01/30 07:53:06;;;;;;;11.30;6.47;;;4.40;52.40;;;;;;4843271;28;114992;-81
2024/01/30 07:55:35;;;;;;;10.48;6.55;;;4.50;52.10;;;;;;4861636;28;114738;-81
2024/01/30 07:58:04;;;;;;;11.30;6.32;;;4.50;51.60;;;;;;4874402;28;114710;-83
2024/01/30 08:00:33;;;;;;;11.98;6.72;;;4.60;51.60;;;;;;4872960;28;114518;-83
2024/01/30 08:03:07;;;;;;;11.00;6.82;;;4.60;51.50;;;;;;4856456;28;115616;-82
2024/01/30 08:05:39;;;;;;;10.60;6.03;;;4.60;51.30;;;;;;4840905;28;115657;-83
2024/01/30 08:08:08;;;;;;;13.00;6.97;;;4.70;51.50;;;;;;4843730;28;114618;-82
2024/01/30 08:10:39;;;;;;;14.00;7.65;;;4.70;51.20;;;;;;4863119;28;114564;-83
2024/01/30 08:13:08;;;;;;;11.73;6.57;;;4.80;51.20;;;;;;4863422;28;115398;-83
2024/01/30 08:15:37;;;;;;;11.43;6.60;;;4.80;50.90;;;;;;4873954;28;114748;-81
2024/01/30 08:18:06;;;;;;;12.10;7.38;;;4.90;50.90;;;;;;4874625;28;114533;-81
2024/01/30 08:20:34;;;;;;;11.43;7.00;;;5.00;51.20;;;;;;4885993;28;114868;-82
2024/01/30 08:23:05;;;;;;;10.75;6.70;;;5.00;51.30;;;;;;4857365;28;115642;-82
2024/01/30 08:25:32;;;;;;;14.82;6.97;;;5.10;50.40;;;;;;4856973;28;114849;-82
2024/01/30 08:28:04;;;;;;;12.25;7.25;;;5.00;50.70;;;;;;4844313;28;114607;-83
2024/01/30 08:30:31;;;;;;;16.10;7.65;;;5.10;50.40;;;;;;4859358;28;114902;-83
2024/01/30 08:32:59;;;;;;;14.63;7.68;;;5.10;50.60;;;;;;4857217;28;119414;-82
2024/01/30 08:35:26;;;;;;;11.18;6.60;;;5.20;49.50;;;;;;4857382;28;114607;-82
2024/01/30 08:37:54;;;;;;;11.63;7.25;;;5.20;50.10;;;;;;4858861;28;114702;-83
2024/01/30 08:40:21;;;;;;;11.18;6.60;;;5.20;50.20;;;;;;4859627;28;114529;-83
2024/01/30 08:42:49;;;;;;;10.98;6.35;;;5.30;50.10;;;;;;4874684;28;116045;-81
2024/01/30 08:45:19;;;;;;;12.88;7.13;;;5.30;49.30;;;;;;4844609;28;114862;-80
2024/01/30 08:47:47;;;;;;;14.48;7.32;;;5.30;49.30;;;;;;4860172;28;114791;-81
2024/01/30 08:50:16;;;;;;;12.15;6.65;;;5.30;49.20;;;;;;4874961;28;114659;-81
2024/01/30 08:52:45;;;;;;;14.02;7.53;;;5.40;49.30;;;;;;4860651;28;115184;-81
2024/01/30 08:55:15;;;;;;;10.50;5.93;;;5.40;49.50;;;;;;4845246;28;114633;-80
2024/01/30 08:57:44;;;;;;;11.25;6.97;;;5.50;48.80;;;;;;4859848;28;115406;-82
2024/01/30 09:00:12;;;;;;;12.13;5.97;;;5.50;49.00;;;;;;4860805;28;114895;-80
2024/01/30 09:02:40;;;;;;;11.10;6.65;;;5.50;48.90;;;;;;4873775;28;115914;-80
2024/01/30 09:05:07;;;;;;;11.93;6.50;;;5.50;49.00;;;;;;4860612;28;114617;-81
2024/01/30 09:07:35;;;;;;;12.35;7.00;;;5.50;48.70;;;;;;4862026;28;114912;-80
2024/01/30 09:10:03;;;;;;;12.07;7.07;;;5.50;48.50;;;;;;4860623;28;114495;-81
2024/01/30 09:12:30;;;;;;;11.40;7.00;;;5.40;49.00;;;;;;4858041;28;115042;-81
2024/01/30 09:14:58;;;;;;;13.82;7.32;;;5.50;49.10;;;;;;4844349;28;114662;-82
2024/01/30 09:17:25;;;;;;;11.40;6.70;;;5.60;48.80;;;;;;4859432;28;114746;-82
2024/01/30 09:19:52;;;;;;;13.43;7.07;;;5.50;48.70;;;;;;4862112;28;114745;-82
2024/01/30 09:22:20;;;;;;;11.38;6.50;;;5.50;48.90;;;;;;4876304;28;115066;-81
2024/01/30 09:24:47;;;;;;;11.40;6.72;;;5.60;48.80;;;;;;4874748;28;114630;-81
2024/01/30 09:27:15;;;;;;;11.63;6.47;;;5.60;48.90;;;;;;4860506;28;114967;-81
2024/01/30 09:29:42;;;;;;;12.40;6.55;;;5.60;47.90;;;;;;4864298;28;114888;-82
2024/01/30 09:32:10;;;;;;;11.93;6.40;;;5.60;48.50;;;;;;4861733;28;116762;-80
2024/01/30 09:34:42;;;;;;;12.95;7.43;;;5.60;48.40;;;;;;4845205;28;115313;-81
2024/01/30 09:37:15;;;;;;;11.82;7.05;;;5.60;48.70;;;;;;4856393;28;114636;-80
2024/01/30 09:39:42;;;;;;;11.88;6.75;;;5.70;48.70;;;;;;4859007;28;114745;-81
2024/01/30 09:42:35;;;;;;;10.63;6.70;;;5.70;48.60;;;;;;4858956;28;115089;-82
2024/01/30 09:45:04;;;;;;;11.65;6.40;;;5.80;48.60;;;;;;4863070;28;114648;-80
2024/01/30 09:47:42;;;;;;;12.15;6.65;;;5.80;48.30;;;;;;4874628;28;115780;-81
2024/01/30 09:50:11;;;;;;;11.50;6.95;;;5.80;47.60;;;;;;4844002;28;114956;-81
2024/01/30 09:52:39;;;;;;;12.00;6.72;;;5.80;48.20;;;;;;4857578;28;116252;-81
2024/01/30 09:55:09;;;;;;;11.73;7.10;;;5.80;47.60;;;;;;4858705;28;114669;-81
2024/01/30 09:57:41;;;;;;;10.50;6.65;;;5.70;47.50;;;;;;4857605;28;114684;-80
2024/01/30 10:00:11;;;;;;;9.88;6.50;;;5.80;48.30;;;;;;4859576;28;114738;-82
2024/01/30 10:02:40;;;;;;;11.30;7.18;;;5.80;48.30;;;;;;4872832;28;115094;-81
2024/01/30 10:05:08;;;;;;;14.13;7.85;;;5.90;47.70;;;;;;4865338;28;114669;-80
2024/01/30 10:07:36;;;;;;;12.18;6.70;;;5.90;47.80;;;;;;4875374;28;114882;-81
2024/01/30 10:10:06;;;;;;;11.52;7.03;;;5.90;47.70;;;;;;4844900;28;114839;-81
2024/01/30 10:12:34;;;;;;;11.93;6.93;;;5.90;47.50;;;;;;4858632;28;115260;-80
2024/01/30 10:15:01;;;;;;;13.38;7.53;;;6.00;47.50;;;;;;4864986;28;115076;-80
2024/01/30 10:17:31;;;;;;;11.65;7.15;;;6.00;47.70;;;;;;4863454;28;116604;-81
2024/01/30 10:20:04;;;;;;;12.25;6.68;;;6.10;47.50;;;;;;4862836;28;114678;-81
2024/01/30 10:22:32;;;;;;;12.55;6.70;;;6.00;47.60;;;;;;4860649;28;115399;-80
2024/01/30 10:25:02;;;;;;;12.10;6.55;;;6.10;47.90;;;;;;4875470;28;114689;-80
2024/01/30 10:27:32;;;;;;;14.05;8.82;;;6.20;47.10;;;;;;4857066;28;114702;-81
2024/01/30 10:30:00;;;;;;;10.50;6.68;;;6.10;47.10;;;;;;4860276;28;114611;-80
2024/01/30 10:32:27;;;;;;;12.60;8.18;;;6.10;47.00;;;;;;4858206;28;115103;-81
2024/01/30 10:34:55;;;;;;;11.85;7.07;;;6.10;47.20;;;;;;4856943;28;114983;-82
2024/01/30 10:37:25;;;;;;;13.50;7.28;;;6.10;47.20;;;;;;4826238;28;115005;-81
2024/01/30 10:39:55;;;;;;;13.98;7.72;;;6.20;46.90;;;;;;4856040;28;115285;-80
2024/01/30 10:42:28;;;;;;;13.85;8.15;;;6.10;46.90;;;;;;4857771;28;115223;-81
2024/01/30 10:45:12;;;;;;;14.20;8.35;;;6.10;46.50;;;;;;4846361;28;114907;-81
2024/01/30 10:47:42;;;;;;;15.20;9.38;;;6.20;46.60;;;;;;4858983;28;114830;-81
2024/01/30 10:50:10;;;;;;;16.40;10.65;;;6.10;46.60;;;;;;4873372;28;114587;-82
2024/01/30 10:52:52;;;;;;;16.80;10.35;;;6.20;46.90;;;;;;4868301;28;115201;-81
2024/01/30 10:55:25;;;;;;;16.40;8.43;;;6.20;46.80;;;;;;4881576;28;114625;-80
2024/01/30 10:57:53;;;;;;;15.60;8.60;;;6.20;47.00;;;;;;4855976;28;114617;-82
2024/01/30 11:00:23;;;;;;;17.58;10.85;;;6.20;47.00;;;;;;4849751;29;114579;-81
2024/01/30 11:02:51;;;;;;;12.32;7.72;;;6.30;46.70;;;;;;4863752;28;115205;-81
2024/01/30 11:05:27;;;;;;;14.90;7.43;;;6.40;46.90;;;;;;4834109;28;116312;-81
2024/01/30 11:08:14;;;;;;;14.32;7.30;;;6.50;45.80;;;;;;4872062;28;114656;-81
2024/01/30 11:10:47;;;;;;;10.38;6.93;;;6.30;45.70;;;;;;4885008;28;114876;-81
2024/01/30 11:13:15;;;;;;;11.35;6.85;;;6.40;46.20;;;;;;4866266;28;115334;-80
2024/01/30 11:15:43;;;;;;;11.48;5.90;;;6.40;46.50;;;;;;4867024;28;115812;-81
2024/01/30 11:18:10;;;;;;;11.43;6.65;;;6.50;46.00;;;;;;4861218;28;114790;-80
2024/01/30 11:20:39;;;;;;;11.73;6.47;;;6.50;46.10;;;;;;4863323;28;114408;-81
2024/01/30 11:23:07;;;;;;;12.23;6.40;;;6.60;46.20;;;;;;4867055;28;115100;-81
2024/01/30 11:25:34;;;;;;;10.63;6.53;;;6.60;46.30;;;;;;4867886;28;115518;-82
2024/01/30 11:28:02;;;;;;;12.30;6.72;;;6.70;46.20;;;;;;4865605;28;114524;-81
2024/01/30 11:30:32;;;;;;;10.25;6.65;;;6.70;46.10;;;;;;4858423;28;114749;-80
2024/01/30 11:33:12;;;;;;;12.40;6.28;;;6.80;45.90;;;;;;4882201;28;115112;-82
2024/01/30 11:35:40;;;;;;;11.90;6.63;;;6.80;45.80;;;;;;4868355;28;114611;-81
2024/01/30 11:38:10;;;;;;;10.55;6.43;;;6.90;45.40;;;;;;4852692;28;114372;-80
2024/01/30 11:40:38;;;;;;;9.02;5.63;;;6.90;44.50;;;;;;4867941;28;114422;-81
2024/01/30 11:43:07;;;;;;;11.02;6.07;;;6.80;44.70;;;;;;4867144;28;115807;-81
2024/01/30 11:45:36;;;;;;;11.55;5.95;;;6.80;44.50;;;;;;4868728;28;116361;-82
2024/01/30 11:48:04;;;;;;;10.68;5.80;;;6.80;44.20;;;;;;4854547;28;114771;-82
2024/01/30 11:50:35;;;;;;;10.95;5.72;;;6.80;44.80;;;;;;4839922;28;114481;-81
2024/01/30 11:53:03;;;;;;;10.38;6.13;;;6.90;45.00;;;;;;4854981;28;115296;-81
2024/01/30 11:55:30;;;;;;;7.43;4.97;;;7.00;44.50;;;;;;4867442;28;114588;-82
2024/01/30 11:58:02;;;;;;;10.10;5.45;;;7.00;44.10;;;;;;4857427;28;114397;-81
2024/01/30 12:00:33;;;;;;;9.52;5.32;;;7.00;43.80;;;;;;4850987;28;114580;-81
2024/01/30 12:03:06;;;;;;;9.13;5.57;;;7.10;43.80;;;;;;4870191;28;116939;-81
2024/01/30 12:05:33;;;;;;;8.85;5.45;;;7.00;43.60;;;;;;4862784;28;114722;-81
2024/01/30 12:08:00;;;;;;;9.43;5.05;;;7.10;43.30;;;;;;4860883;28;115379;-81
2024/01/30 12:10:32;;;;;;;7.88;5.25;;;7.10;43.10;;;;;;4857328;28;114644;-82
2024/01/30 12:13:00;;;;;;;7.90;4.45;;;7.10;43.10;;;;;;4855431;28;115117;-82
2024/01/30 12:15:30;;;;;;;9.45;4.82;;;7.20;43.30;;;;;;4862932;28;114895;-82
2024/01/30 12:18:05;;;;;;;10.02;5.22;;;7.20;43.20;;;;;;4882125;28;114552;-82
2024/01/30 12:20:34;;;;;;;8.73;5.00;;;7.20;42.70;;;;;;4863918;28;114972;-81
2024/01/30 12:23:02;;;;;;;8.52;4.80;;;7.20;42.80;;;;;;4866172;28;115275;-81
2024/01/30 12:25:29;;;;;;;10.00;5.82;;;7.20;43.00;;;;;;4871875;28;114700;-81
2024/01/30 12:27:57;;;;;;;10.48;6.18;;;7.20;42.70;;;;;;4876403;28;114504;-82
2024/01/30 12:30:25;;;;;;;10.40;6.38;;;7.20;42.30;;;;;;4868709;28;114442;-81
2024/01/30 12:32:52;;;;;;;10.82;5.93;;;7.30;42.70;;;;;;4868378;28;115147;-81
2024/01/30 12:35:21;;;;;;;9.02;5.53;;;7.30;42.10;;;;;;4882839;28;116478;-82
2024/01/30 12:37:49;;;;;;;10.27;5.50;;;7.30;41.40;;;;;;4852713;28;114803;-82
2024/01/30 12:40:17;;;;;;;7.55;4.70;;;7.20;41.80;;;;;;4869567;28;114483;-80
2024/01/30 12:42:48;;;;;;;7.35;5.00;;;7.20;41.40;;;;;;4851708;28;115332;-81
2024/01/30 12:45:20;;;;;;;7.72;4.70;;;7.20;41.60;;;;;;4867461;28;114815;-81
2024/01/30 12:47:48;;;;;;;7.75;4.40;;;7.20;41.50;;;;;;4867983;28;114727;-81